Time;durP1;ratioP1;P1;durP2;ratioP2;P2;SDS_P1;SDS_P2;PMS_P1;PMS_P2;Temp;Humidity;BMP_temperature;BMP_pressure;BME280_temperature;BME280_humidity;BME280_pressure;Samples;Min_cycle;Max_cycle;Signal;HPM_P1;HPM_P2
2021/07/29 00:00:37;;;;;;;28.13;20.92;;;25.00;79.40;;;;;;5036251;28;20371;-71
2021/07/29 00:03:06;;;;;;;24.58;20.77;;;25.00;79.60;;;;;;5036439;28;20539;-71
2021/07/29 00:05:34;;;;;;;27.95;20.23;;;25.00;79.60;;;;;;5035617;28;20052;-71
2021/07/29 00:08:00;;;;;;;23.00;18.95;;;24.90;79.60;;;;;;5036115;28;20056;-71
2021/07/29 00:10:27;;;;;;;26.95;20.88;;;24.90;79.50;;;;;;5035856;28;20029;-72
2021/07/29 00:12:53;;;;;;;27.20;19.83;;;24.90;79.50;;;;;;5035084;28;20029;-71
2021/07/29 00:15:19;;;;;;;28.90;19.55;;;24.90;79.50;;;;;;5035474;28;20072;-71
2021/07/29 00:20:16;;;;;;;32.38;20.33;;;24.90;79.70;;;;;;5035391;28;20049;-71
2021/07/29 00:22:44;;;;;;;26.67;20.55;;;24.90;79.50;;;;;;5035326;28;20034;-71
2021/07/29 00:25:14;;;;;;;25.38;18.98;;;24.80;79.50;;;;;;5035052;28;20025;-71
2021/07/29 00:27:40;;;;;;;30.90;22.17;;;24.80;79.50;;;;;;5035555;28;20025;-71
2021/07/29 00:30:07;;;;;;;31.92;20.65;;;24.80;79.60;;;;;;5035246;28;20468;-71
2021/07/29 00:32:33;;;;;;;25.40;19.67;;;24.80;79.70;;;;;;5035173;28;20344;-72
2021/07/29 00:34:59;;;;;;;33.50;20.05;;;24.70;79.70;;;;;;5035110;28;20053;-71
2021/07/29 00:37:24;;;;;;;26.20;19.55;;;24.70;79.80;;;;;;5035247;28;20034;-72
2021/07/29 00:39:50;;;;;;;23.48;18.92;;;24.70;80.00;;;;;;5035066;28;20037;-72
2021/07/29 00:42:16;;;;;;;27.48;20.05;;;24.60;80.00;;;;;;5035037;28;20052;-72
2021/07/29 00:44:42;;;;;;;30.63;20.10;;;24.60;80.10;;;;;;5035008;28;20055;-72
2021/07/29 00:47:07;;;;;;;26.17;19.83;;;24.50;80.20;;;;;;5034959;28;20021;-72
2021/07/29 00:49:34;;;;;;;28.35;20.20;;;24.50;80.30;;;;;;5034828;28;20033;-72
2021/07/29 00:52:00;;;;;;;32.85;20.75;;;24.50;80.40;;;;;;5034838;28;20030;-71
2021/07/29 00:54:29;;;;;;;24.55;20.02;;;24.50;80.50;;;;;;5034605;28;20434;-71
2021/07/29 00:56:57;;;;;;;30.55;20.05;;;24.50;80.50;;;;;;5035114;28;20108;-71
2021/07/29 00:59:23;;;;;;;29.70;20.50;;;24.40;80.50;;;;;;5034373;28;20033;-71
2021/07/29 01:01:49;;;;;;;30.45;19.85;;;24.40;80.60;;;;;;5034180;28;20029;-72
2021/07/29 01:04:15;;;;;;;25.67;20.05;;;24.40;80.80;;;;;;5034893;28;20021;-71
2021/07/29 01:06:41;;;;;;;31.23;19.05;;;24.40;80.80;;;;;;5034486;28;20087;-71
2021/07/29 01:09:10;;;;;;;28.90;19.48;;;24.40;80.80;;;;;;5034526;28;20486;-71
2021/07/29 01:11:40;;;;;;;28.42;19.50;;;24.40;80.80;;;;;;5034385;28;20033;-71
2021/07/29 01:14:07;;;;;;;25.80;19.63;;;24.40;80.80;;;;;;5034040;28;20052;-71
2021/07/29 01:16:34;;;;;;;26.65;19.48;;;24.40;80.80;;;;;;5034744;28;20029;-71
2021/07/29 01:19:00;;;;;;;27.70;19.58;;;24.40;80.70;;;;;;5034243;28;20037;-71
2021/07/29 01:21:27;;;;;;;28.05;19.25;;;24.40;80.70;;;;;;5034575;28;20451;-72
2021/07/29 01:23:53;;;;;;;26.15;19.05;;;24.30;80.60;;;;;;5034483;28;20033;-71
2021/07/29 01:26:19;;;;;;;28.33;19.23;;;24.30;80.80;;;;;;5033840;28;20072;-71
2021/07/29 01:28:45;;;;;;;25.23;18.98;;;24.20;81.00;;;;;;5034172;28;20121;-71
2021/07/29 01:31:11;;;;;;;24.80;18.58;;;24.20;81.10;;;;;;5033879;28;20108;-71
2021/07/29 01:33:37;;;;;;;29.63;19.27;;;24.20;81.20;;;;;;5034350;28;20041;-72
2021/07/29 01:36:04;;;;;;;28.05;19.75;;;24.20;81.30;;;;;;5034261;28;20026;-71
2021/07/29 01:38:30;;;;;;;24.42;19.40;;;24.10;81.40;;;;;;5033999;28;20037;-72
2021/07/29 01:40:56;;;;;;;28.90;19.55;;;24.10;81.40;;;;;;5034492;28;20493;-71
2021/07/29 01:43:21;;;;;;;27.33;20.60;;;24.10;82.20;;;;;;5033879;28;20464;-71
2021/07/29 01:45:47;;;;;;;25.45;19.52;;;24.10;81.60;;;;;;5034354;28;20029;-71
2021/07/29 01:48:13;;;;;;;25.15;20.38;;;24.00;81.70;;;;;;5034063;28;20037;-72
2021/07/29 01:50:39;;;;;;;33.15;21.27;;;24.00;81.80;;;;;;5033738;28;20021;-71
2021/07/29 01:53:04;;;;;;;32.15;21.98;;;24.00;81.90;;;;;;5034021;28;20072;-71
2021/07/29 01:55:30;;;;;;;34.72;21.33;;;24.00;82.00;;;;;;5033711;28;20029;-72
2021/07/29 01:57:56;;;;;;;27.63;21.13;;;24.00;82.10;;;;;;5033616;28;20411;-71
2021/07/29 02:00:24;;;;;;;29.08;21.42;;;24.00;82.30;;;;;;5033878;28;20048;-71
2021/07/29 02:02:50;;;;;;;28.40;21.15;;;23.90;82.30;;;;;;5033980;28;20052;-71
2021/07/29 02:05:16;;;;;;;27.33;20.65;;;23.90;82.50;;;;;;5033523;28;20034;-71
2021/07/29 02:07:41;;;;;;;27.92;21.02;;;23.90;82.50;;;;;;5033000;28;20022;-72
2021/07/29 02:10:07;;;;;;;27.67;20.55;;;23.90;82.60;;;;;;5033838;28;20021;-71
2021/07/29 02:12:33;;;;;;;28.33;21.48;;;23.90;82.60;;;;;;5033773;28;20475;-72
2021/07/29 02:14:59;;;;;;;26.23;20.83;;;23.90;82.60;;;;;;5033123;28;20026;-71
2021/07/29 02:17:25;;;;;;;26.00;20.75;;;23.80;82.80;;;;;;5033407;28;20025;-72
2021/07/29 02:19:51;;;;;;;28.65;21.65;;;23.80;83.00;;;;;;5033377;28;20521;-71
2021/07/29 02:22:17;;;;;;;24.02;20.15;;;23.80;82.90;;;;;;5033683;28;20025;-71
2021/07/29 02:24:43;;;;;;;28.50;20.85;;;23.80;82.90;;;;;;5032131;28;20112;-71
2021/07/29 02:27:08;;;;;;;30.52;20.77;;;23.80;83.00;;;;;;5033669;28;20109;-71
2021/07/29 02:29:35;;;;;;;27.55;19.63;;;23.70;83.00;;;;;;5033395;28;20029;-72
2021/07/29 02:32:00;;;;;;;32.78;20.75;;;23.70;83.10;;;;;;5033279;28;20069;-71
2021/07/29 02:34:26;;;;;;;25.80;20.25;;;23.70;83.20;;;;;;5033344;28;20060;-71
2021/07/29 02:36:52;;;;;;;25.10;19.92;;;23.60;83.20;;;;;;5033350;28;20091;-71
2021/07/29 02:39:17;;;;;;;26.83;20.80;;;23.60;83.30;;;;;;5033322;28;20460;-71
2021/07/29 02:41:43;;;;;;;29.55;21.73;;;23.50;83.50;;;;;;5033310;28;20033;-71
2021/07/29 02:44:09;;;;;;;26.35;21.73;;;23.50;83.70;;;;;;5033271;28;20033;-71
2021/07/29 02:46:34;;;;;;;25.45;21.33;;;23.50;83.80;;;;;;5033128;28;20026;-72
2021/07/29 02:49:00;;;;;;;29.65;22.20;;;23.50;84.00;;;;;;5033464;28;20037;-71
2021/07/29 02:51:26;;;;;;;28.85;22.50;;;23.50;84.10;;;;;;5033704;28;20033;-71
2021/07/29 02:53:52;;;;;;;31.58;22.17;;;23.50;84.20;;;;;;5033115;28;20052;-71
2021/07/29 02:56:17;;;;;;;29.33;22.00;;;23.50;84.20;;;;;;5033661;28;20029;-71
2021/07/29 02:58:47;;;;;;;27.05;21.80;;;23.50;84.20;;;;;;5033311;28;20451;-71
2021/07/29 03:01:13;;;;;;;28.75;21.65;;;23.50;84.20;;;;;;5032833;28;20443;-73
2021/07/29 03:03:38;;;;;;;29.60;22.58;;;23.60;84.20;;;;;;5033418;28;20132;-72
2021/07/29 03:06:04;;;;;;;25.20;21.80;;;23.70;84.20;;;;;;5032767;28;20037;-71
2021/07/29 03:08:30;;;;;;;28.55;21.20;;;23.70;84.50;;;;;;5033058;28;20072;-73
2021/07/29 03:10:58;;;;;;;26.80;21.02;;;23.80;83.70;;;;;;5033312;28;20030;-73
2021/07/29 03:13:25;;;;;;;27.20;19.92;;;23.80;83.70;;;;;;5033502;28;20414;-72
2021/07/29 03:15:51;;;;;;;25.77;20.80;;;23.90;83.50;;;;;;5031659;28;20030;-71
2021/07/29 03:18:16;;;;;;;24.70;21.25;;;23.90;83.40;;;;;;5033614;28;20044;-71
2021/07/29 03:20:43;;;;;;;25.98;21.30;;;23.90;83.30;;;;;;5036488;28;20025;-71
2021/07/29 03:23:10;;;;;;;29.60;20.38;;;23.90;83.20;;;;;;5036572;28;20025;-71
2021/07/29 03:25:35;;;;;;;29.65;20.38;;;24.00;83.00;;;;;;5036965;28;20427;-72
2021/07/29 03:28:02;;;;;;;27.52;20.98;;;24.00;82.90;;;;;;5036437;28;20025;-71
2021/07/29 03:30:28;;;;;;;30.17;19.73;;;24.10;82.70;;;;;;5036289;28;20071;-72
2021/07/29 03:32:53;;;;;;;25.73;20.90;;;24.20;82.50;;;;;;5036251;28;20112;-71
2021/07/29 03:35:19;;;;;;;30.00;21.42;;;24.20;82.10;;;;;;5036332;28;20029;-71
2021/07/29 03:37:45;;;;;;;27.08;20.00;;;24.30;81.90;;;;;;5035840;28;20029;-71
2021/07/29 03:40:11;;;;;;;32.03;20.60;;;24.30;81.60;;;;;;5036185;28;20029;-71
2021/07/29 03:42:37;;;;;;;27.95;20.83;;;24.40;81.40;;;;;;5036050;28;20036;-71
2021/07/29 03:45:03;;;;;;;29.30;20.80;;;24.50;81.20;;;;;;5035875;28;20033;-71
2021/07/29 03:47:29;;;;;;;23.85;19.92;;;24.60;81.10;;;;;;5036267;28;20133;-71
2021/07/29 03:49:55;;;;;;;27.75;18.52;;;24.60;80.80;;;;;;5035972;28;20060;-72
2021/07/29 03:52:21;;;;;;;28.42;19.65;;;24.70;80.50;;;;;;5035957;28;20029;-71
2021/07/29 03:54:50;;;;;;;28.60;19.10;;;24.70;80.30;;;;;;5035846;28;20076;-71
2021/07/29 03:57:16;;;;;;;29.17;21.08;;;24.80;80.10;;;;;;5035922;28;20018;-71
2021/07/29 03:59:42;;;;;;;26.08;19.52;;;24.90;80.10;;;;;;5035527;28;20037;-71
2021/07/29 04:02:10;;;;;;;24.75;18.42;;;25.00;79.70;;;;;;5035544;28;20049;-71
2021/07/29 04:04:39;;;;;;;25.73;18.35;;;25.00;79.30;;;;;;5035642;28;20029;-77
2021/07/29 04:07:06;;;;;;;25.85;18.20;;;25.10;79.00;;;;;;5035648;28;20067;-71
2021/07/29 04:09:32;;;;;;;24.13;18.45;;;25.20;78.80;;;;;;5035845;28;20074;-71
2021/07/29 04:11:58;;;;;;;22.48;18.27;;;25.30;78.70;;;;;;5035585;28;20111;-71
2021/07/29 04:14:24;;;;;;;24.92;17.85;;;25.40;78.70;;;;;;5035611;28;20029;-71
2021/07/29 04:16:53;;;;;;;22.05;17.90;;;25.50;78.20;;;;;;5035522;28;20167;-72
2021/07/29 04:19:19;;;;;;;29.30;20.10;;;25.60;77.70;;;;;;5035354;28;20079;-71
2021/07/29 04:21:45;;;;;;;29.00;21.85;;;25.70;77.30;;;;;;5035425;28;20029;-72
2021/07/29 04:24:11;;;;;;;29.30;21.98;;;25.80;76.90;;;;;;5035615;28;20029;-72
2021/07/29 04:26:38;;;;;;;32.03;20.60;;;25.80;76.70;;;;;;5035326;28;20426;-71
2021/07/29 04:29:04;;;;;;;27.60;21.08;;;25.90;76.60;;;;;;5035721;28;20061;-71
2021/07/29 04:31:30;;;;;;;28.00;19.85;;;26.00;76.20;;;;;;5034615;28;20517;-71
2021/07/29 04:33:55;;;;;;;26.92;17.25;;;26.10;75.90;;;;;;5035472;28;20027;-71
2021/07/29 04:36:21;;;;;;;23.65;17.35;;;26.20;75.40;;;;;;5034930;28;20064;-72
2021/07/29 04:38:47;;;;;;;25.52;17.13;;;26.40;75.10;;;;;;5033622;28;20041;-71
2021/07/29 04:41:12;;;;;;;23.70;17.80;;;26.50;74.80;;;;;;5033822;28;20030;-72
2021/07/29 04:43:38;;;;;;;23.80;17.15;;;26.60;74.50;;;;;;5035052;28;20203;-74
2021/07/29 04:46:04;;;;;;;22.80;17.23;;;26.70;74.00;;;;;;5034629;28;20022;-71
2021/07/29 04:48:30;;;;;;;32.78;17.02;;;26.80;73.70;;;;;;5035113;28;20080;-70
2021/07/29 04:51:04;;;;;;;23.83;15.60;;;26.80;73.20;;;;;;5035263;28;20032;-71
2021/07/29 04:53:33;;;;;;;22.20;16.37;;;26.90;73.00;;;;;;5034742;28;20079;-73
2021/07/29 04:56:01;;;;;;;25.67;16.10;;;26.90;72.90;;;;;;5033438;28;20034;-72
2021/07/29 04:58:27;;;;;;;22.15;16.30;;;27.00;72.70;;;;;;5034424;28;20444;-72
2021/07/29 05:00:52;;;;;;;22.58;16.38;;;27.10;72.50;;;;;;5034490;28;20109;-73
2021/07/29 05:03:18;;;;;;;21.48;16.08;;;27.20;72.30;;;;;;5034750;28;20050;-72
2021/07/29 05:05:44;;;;;;;24.73;14.57;;;27.30;72.10;;;;;;5034322;28;20383;-72
2021/07/29 05:08:09;;;;;;;22.73;15.93;;;27.30;71.80;;;;;;5034146;28;20108;-72
2021/07/29 05:10:35;;;;;;;21.17;15.75;;;27.50;71.80;;;;;;5034798;28;20033;-71
2021/07/29 05:13:01;;;;;;;20.83;14.68;;;27.50;71.40;;;;;;5034058;28;20412;-72
2021/07/29 05:15:26;;;;;;;21.88;16.05;;;27.60;71.00;;;;;;5034757;28;20048;-72
2021/07/29 05:17:55;;;;;;;23.08;15.60;;;27.70;70.90;;;;;;5034271;28;20040;-72
2021/07/29 05:20:22;;;;;;;25.90;16.23;;;27.80;70.90;;;;;;5034454;28;20168;-72
2021/07/29 05:22:47;;;;;;;21.50;14.88;;;27.90;70.80;;;;;;5033812;28;20017;-72
2021/07/29 05:25:22;;;;;;;26.73;16.05;;;28.00;70.40;;;;;;5034753;28;20384;-72
2021/07/29 05:27:50;;;;;;;22.17;16.00;;;28.00;70.00;;;;;;5033981;28;20076;-72
2021/07/29 05:30:20;;;;;;;22.50;15.20;;;28.10;69.90;;;;;;5034006;28;20033;-72
2021/07/29 05:32:45;;;;;;;25.42;16.33;;;28.10;69.70;;;;;;5033925;28;20018;-72
2021/07/29 05:35:11;;;;;;;23.90;14.57;;;28.20;69.70;;;;;;5033881;28;20022;-72
2021/07/29 05:37:38;;;;;;;21.98;14.50;;;28.30;69.50;;;;;;5033857;28;20104;-72
2021/07/29 05:40:07;;;;;;;20.63;15.05;;;28.50;69.10;;;;;;5033961;28;20099;-72
2021/07/29 05:42:34;;;;;;;22.92;14.27;;;28.60;68.60;;;;;;5032901;28;20027;-72
2021/07/29 05:45:00;;;;;;;17.77;13.27;;;28.70;68.40;;;;;;5034149;28;20032;-72
2021/07/29 05:47:26;;;;;;;22.75;14.52;;;28.80;68.20;;;;;;5033693;28;20087;-72
2021/07/29 05:49:52;;;;;;;24.15;13.48;;;28.90;67.70;;;;;;5033673;28;20139;-72
2021/07/29 05:52:17;;;;;;;18.88;13.95;;;28.90;67.00;;;;;;5033661;28;20021;-72
2021/07/29 05:54:43;;;;;;;23.67;14.40;;;29.00;67.00;;;;;;5032446;28;20057;-75
2021/07/29 05:57:09;;;;;;;23.70;13.75;;;29.10;66.80;;;;;;5034171;28;20066;-71
2021/07/29 05:59:34;;;;;;;23.08;14.65;;;29.20;66.50;;;;;;5034083;28;20120;-73
2021/07/29 06:02:00;;;;;;;25.10;13.68;;;29.30;66.20;;;;;;5033477;28;20045;-74
2021/07/29 06:04:27;;;;;;;20.50;13.57;;;29.40;65.50;;;;;;5033548;28;20033;-73
2021/07/29 06:06:53;;;;;;;18.25;13.82;;;29.60;64.90;;;;;;5033535;28;20083;-73
2021/07/29 06:09:19;;;;;;;23.00;14.05;;;29.70;64.60;;;;;;5033618;28;20033;-72
2021/07/29 06:11:44;;;;;;;24.55;14.20;;;29.80;64.00;;;;;;5033592;28;20028;-73
2021/07/29 06:14:10;;;;;;;21.27;13.90;;;29.90;63.90;;;;;;5033692;28;20029;-73
2021/07/29 06:16:36;;;;;;;26.10;15.60;;;30.00;64.00;;;;;;5033186;28;20033;-73
2021/07/29 06:21:31;;;;;;;35.25;16.90;;;30.20;65.10;;;;;;5033170;28;20030;-73
2021/07/29 06:23:58;;;;;;;30.00;16.33;;;30.30;65.50;;;;;;5032856;28;20522;-73
2021/07/29 06:26:24;;;;;;;25.27;17.08;;;30.40;65.50;;;;;;5033017;28;20026;-73
2021/07/29 06:28:49;;;;;;;25.75;16.42;;;30.40;65.50;;;;;;5032807;28;20403;-73
2021/07/29 06:31:15;;;;;;;31.45;16.98;;;30.50;65.60;;;;;;5032991;28;20030;-73
2021/07/29 06:33:41;;;;;;;24.27;15.80;;;30.50;65.50;;;;;;5033688;28;20025;-73
2021/07/29 06:36:06;;;;;;;25.10;15.80;;;30.60;65.50;;;;;;5033120;28;20075;-72
2021/07/29 06:38:32;;;;;;;28.60;17.13;;;30.70;65.40;;;;;;5033013;28;20356;-72
2021/07/29 06:40:58;;;;;;;24.70;16.10;;;30.70;65.20;;;;;;5032968;28;20475;-72
2021/07/29 06:43:24;;;;;;;29.10;17.92;;;30.80;65.10;;;;;;5033067;28;20025;-71
2021/07/29 06:45:50;;;;;;;27.13;16.35;;;30.80;65.20;;;;;;5032852;28;20033;-73
2021/07/29 06:48:17;;;;;;;34.97;17.10;;;30.90;65.30;;;;;;5031924;28;20486;-73
2021/07/29 06:50:43;;;;;;;29.63;17.02;;;31.00;65.20;;;;;;5033596;28;20103;-73
2021/07/29 06:53:09;;;;;;;26.95;16.65;;;31.10;65.30;;;;;;5033711;28;20033;-73
2021/07/29 06:55:35;;;;;;;30.20;17.80;;;31.20;65.10;;;;;;5037445;28;20032;-73
2021/07/29 06:58:00;;;;;;;24.90;17.33;;;31.20;64.80;;;;;;5036549;28;20048;-73
2021/07/29 07:00:26;;;;;;;27.00;19.27;;;31.30;64.60;;;;;;5037293;28;20030;-73
2021/07/29 07:02:51;;;;;;;29.60;17.67;;;31.40;64.70;;;;;;5036896;28;20046;-73
2021/07/29 07:05:17;;;;;;;26.80;18.33;;;31.40;64.50;;;;;;5037124;28;20060;-73
2021/07/29 07:07:43;;;;;;;22.90;17.20;;;31.50;64.30;;;;;;5036441;28;20460;-72
2021/07/29 07:10:09;;;;;;;29.00;19.83;;;31.50;64.20;;;;;;5036412;28;20037;-73
2021/07/29 07:12:36;;;;;;;26.38;19.42;;;31.60;64.00;;;;;;5036736;28;20079;-72
2021/07/29 07:15:03;;;;;;;31.48;20.67;;;31.70;63.90;;;;;;5036674;28;20112;-73
2021/07/29 07:17:29;;;;;;;32.38;20.83;;;31.80;63.80;;;;;;5036926;28;20037;-73
2021/07/29 07:19:59;;;;;;;35.05;21.00;;;31.80;63.40;;;;;;5036702;28;20460;-73
2021/07/29 07:22:25;;;;;;;39.10;24.60;;;31.90;63.10;;;;;;5036033;28;20427;-73
2021/07/29 07:24:51;;;;;;;35.60;25.40;;;32.00;62.70;;;;;;5036309;28;20464;-74
2021/07/29 07:27:17;;;;;;;37.33;24.52;;;32.00;62.50;;;;;;5036633;28;20033;-73
2021/07/29 07:29:42;;;;;;;32.97;18.52;;;32.00;62.50;;;;;;5035803;28;20395;-74
2021/07/29 07:32:08;;;;;;;22.10;12.23;;;32.10;61.90;;;;;;5036174;28;20029;-73
2021/07/29 07:34:34;;;;;;;25.27;12.70;;;32.10;60.40;;;;;;5036677;28;20033;-75
2021/07/29 07:37:01;;;;;;;20.00;12.05;;;32.10;59.60;;;;;;5034168;28;20037;-74
2021/07/29 07:39:26;;;;;;;22.23;12.85;;;32.00;59.20;;;;;;5036480;28;20451;-74
2021/07/29 07:41:55;;;;;;;26.98;13.63;;;32.00;59.40;;;;;;5036422;28;20057;-74
2021/07/29 07:44:21;;;;;;;20.30;13.63;;;32.00;59.20;;;;;;5036007;28;20479;-74
2021/07/29 07:46:47;;;;;;;21.38;14.02;;;32.00;59.30;;;;;;5036203;28;20021;-74
2021/07/29 07:49:12;;;;;;;21.08;13.55;;;32.00;59.50;;;;;;5035900;28;20040;-73
2021/07/29 07:51:40;;;;;;;24.88;13.63;;;32.00;59.70;;;;;;5035691;28;20424;-73
2021/07/29 07:54:07;;;;;;;25.35;13.13;;;32.00;60.00;;;;;;5035557;28;20036;-73
2021/07/29 07:56:32;;;;;;;27.08;14.23;;;32.00;60.00;;;;;;5035593;28;20033;-73
2021/07/29 07:58:58;;;;;;;23.27;14.10;;;32.00;60.10;;;;;;5035432;28;20124;-73
2021/07/29 08:01:24;;;;;;;21.65;12.88;;;32.00;60.10;;;;;;5035588;28;20526;-73
2021/07/29 08:03:50;;;;;;;20.77;13.05;;;32.00;59.50;;;;;;5036021;28;20057;-73
2021/07/29 08:06:15;;;;;;;24.38;13.98;;;32.10;59.40;;;;;;5034848;28;20025;-73
2021/07/29 08:08:42;;;;;;;21.40;13.30;;;32.20;59.20;;;;;;5035371;28;20116;-72
2021/07/29 08:11:09;;;;;;;25.92;13.68;;;32.20;58.90;;;;;;5035235;28;20029;-73
2021/07/29 08:13:34;;;;;;;21.63;14.48;;;32.30;58.30;;;;;;5035180;28;20026;-73
2021/07/29 08:16:00;;;;;;;25.85;14.52;;;32.40;58.50;;;;;;5035008;28;20156;-73
2021/07/29 08:18:27;;;;;;;21.63;14.30;;;32.40;58.50;;;;;;5035100;28;20037;-73
2021/07/29 08:20:53;;;;;;;25.55;13.77;;;32.60;58.40;;;;;;5035526;28;20034;-73
2021/07/29 08:23:19;;;;;;;18.58;12.57;;;32.60;58.20;;;;;;5035266;28;20047;-73
2021/07/29 08:25:45;;;;;;;21.75;12.50;;;32.60;58.10;;;;;;5035505;28;20027;-73
2021/07/29 08:28:11;;;;;;;23.45;11.70;;;32.70;57.70;;;;;;5035138;28;20029;-73
2021/07/29 08:30:37;;;;;;;18.60;10.70;;;32.80;57.40;;;;;;5035476;28;20029;-73
2021/07/29 08:33:10;;;;;;;17.58;10.98;;;33.00;57.20;;;;;;5035202;28;20100;-74
2021/07/29 08:35:37;;;;;;;25.67;12.43;;;33.20;56.70;;;;;;5034953;28;20021;-73
2021/07/29 08:38:03;;;;;;;21.70;12.25;;;33.40;56.60;;;;;;5034952;28;20120;-74
2021/07/29 08:40:29;;;;;;;20.02;10.40;;;33.50;56.40;;;;;;5033733;28;20026;-73
2021/07/29 08:42:56;;;;;;;21.75;10.98;;;33.60;55.20;;;;;;5034686;28;20037;-74
2021/07/29 08:45:21;;;;;;;24.30;8.88;;;33.70;54.50;;;;;;5034862;28;20487;-73
2021/07/29 08:47:54;;;;;;;18.95;10.48;;;33.80;52.80;;;;;;5034873;28;20029;-74
2021/07/29 08:50:22;;;;;;;18.02;9.15;;;33.90;52.70;;;;;;5034798;28;20041;-74
2021/07/29 08:52:50;;;;;;;21.85;9.77;;;34.00;52.50;;;;;;5034551;28;20030;-74
2021/07/29 08:55:16;;;;;;;17.77;8.73;;;34.20;52.20;;;;;;5034629;28;20021;-74
2021/07/29 08:57:42;;;;;;;16.60;8.43;;;34.40;50.90;;;;;;5034801;28;20372;-74
2021/07/29 09:00:10;;;;;;;16.30;8.40;;;34.60;49.90;;;;;;5034618;28;20034;-74
2021/07/29 09:02:35;;;;;;;14.57;8.63;;;34.60;49.40;;;;;;5035241;28;20042;-73
2021/07/29 09:05:23;;;;;;;14.32;8.68;;;34.70;49.50;;;;;;5033218;28;20033;-74
2021/07/29 09:08:09;;;;;;;16.95;8.15;;;34.80;49.00;;;;;;5034141;28;20034;-73
2021/07/29 09:10:40;;;;;;;16.90;8.50;;;34.90;49.20;;;;;;5034158;28;20419;-74
2021/07/29 09:13:15;;;;;;;18.27;8.63;;;35.30;48.80;;;;;;5034155;28;20040;-74
2021/07/29 09:15:42;;;;;;;15.30;9.18;;;35.60;48.40;;;;;;5034097;28;20037;-73
2021/07/29 09:18:09;;;;;;;19.92;8.70;;;35.70;48.20;;;;;;5033933;28;20042;-73
2021/07/29 09:20:36;;;;;;;14.63;8.45;;;35.80;47.90;;;;;;5033679;28;20025;-73
2021/07/29 09:23:19;;;;;;;22.13;8.98;;;36.10;47.80;;;;;;5033961;28;20037;-73
2021/07/29 09:25:57;;;;;;;15.38;8.05;;;36.30;47.60;;;;;;5034609;28;20033;-73
2021/07/29 09:28:38;;;;;;;12.60;8.18;;;36.60;47.00;;;;;;5034223;28;20452;-73
2021/07/29 09:31:20;;;;;;;15.57;8.43;;;36.80;46.70;;;;;;5034119;28;20030;-73
2021/07/29 09:34:00;;;;;;;20.33;8.33;;;37.30;46.80;;;;;;5033840;28;20033;-74
2021/07/29 09:36:32;;;;;;;15.00;7.63;;;37.70;46.10;;;;;;5033715;28;20036;-74
2021/07/29 09:39:20;;;;;;;13.00;6.95;;;38.10;45.10;;;;;;5033999;28;20048;-74
2021/07/29 09:41:48;;;;;;;11.48;6.70;;;38.40;43.80;;;;;;5033607;28;20022;-73
2021/07/29 09:44:14;;;;;;;14.30;6.60;;;38.20;43.60;;;;;;5033267;28;20109;-73
2021/07/29 09:46:41;;;;;;;13.85;7.95;;;38.10;43.60;;;;;;5033700;28;20021;-74
2021/07/29 09:49:07;;;;;;;11.57;7.18;;;38.00;43.50;;;;;;5033436;28;20519;-74
2021/07/29 09:51:35;;;;;;;14.02;7.65;;;37.80;43.40;;;;;;5033230;28;20029;-73
2021/07/29 09:54:02;;;;;;;14.38;7.97;;;37.50;44.00;;;;;;5032969;28;20389;-75
2021/07/29 09:56:27;;;;;;;13.60;7.97;;;37.40;44.50;;;;;;5033804;28;20030;-73
2021/07/29 09:58:53;;;;;;;12.52;8.07;;;37.40;44.70;;;;;;5033129;28;20036;-73
2021/07/29 10:01:19;;;;;;;11.35;7.95;;;37.40;44.70;;;;;;5033467;28;20047;-73
2021/07/29 10:03:51;;;;;;;12.07;7.55;;;37.50;44.90;;;;;;5033816;28;20046;-73
2021/07/29 10:06:20;;;;;;;13.70;7.55;;;37.60;44.60;;;;;;5033312;28;20032;-73
2021/07/29 10:08:55;;;;;;;11.88;7.40;;;37.70;44.70;;;;;;5033354;28;20025;-73
2021/07/29 10:11:25;;;;;;;13.88;7.97;;;37.80;44.70;;;;;;5033018;28;20582;-74
2021/07/29 10:13:52;;;;;;;14.65;7.60;;;37.80;44.90;;;;;;5031894;28;20361;-73
2021/07/29 10:16:44;;;;;;;20.23;7.97;;;38.00;45.10;;;;;;5032470;28;20407;-73
2021/07/29 10:19:09;;;;;;;16.77;7.78;;;38.10;44.90;;;;;;5033355;28;20046;-73
2021/07/29 10:21:38;;;;;;;12.15;6.82;;;38.30;45.00;;;;;;5033169;28;20386;-73
2021/07/29 10:24:11;;;;;;;15.30;7.30;;;38.60;44.50;;;;;;5032941;28;20063;-74
2021/07/29 10:26:55;;;;;;;;;;;38.70;44.30;;;;;;5033268;28;20029;-74
2021/07/29 10:29:25;;;;;;;11.13;6.80;;;38.70;44.50;;;;;;5035336;28;19916;-74
2021/07/29 10:31:53;;;;;;;10.63;6.40;;;38.70;42.90;;;;;;5037230;28;20040;-73
2021/07/29 10:34:29;;;;;;;13.50;7.15;;;38.60;42.80;;;;;;5036653;28;20032;-74
2021/07/29 10:36:59;;;;;;;14.15;5.88;;;38.70;42.80;;;;;;5036849;28;20088;-73
2021/07/29 10:39:25;;;;;;;10.80;5.90;;;39.00;42.40;;;;;;5036827;28;20033;-72
2021/07/29 10:41:53;;;;;;;9.43;5.35;;;39.10;42.10;;;;;;5037218;28;20088;-73
2021/07/29 10:44:31;;;;;;;13.95;6.07;;;39.20;41.10;;;;;;5036632;28;20383;-73
2021/07/29 10:46:57;;;;;;;10.27;5.25;;;39.30;40.90;;;;;;5037094;28;20442;-74
2021/07/29 10:49:43;;;;;;;8.65;5.40;;;39.30;40.30;;;;;;5036897;28;20056;-73
2021/07/29 10:52:09;;;;;;;12.50;4.72;;;39.40;40.60;;;;;;5036869;28;20523;-73
2021/07/29 10:54:41;;;;;;;12.85;4.75;;;39.50;39.90;;;;;;5036873;28;20037;-71
2021/07/29 10:57:09;;;;;;;8.60;4.88;;;39.60;39.90;;;;;;5036712;28;20116;-72
2021/07/29 10:59:35;;;;;;;9.50;5.50;;;39.70;39.90;;;;;;5037002;28;20045;-74
2021/07/29 11:02:13;;;;;;;14.40;5.63;;;39.80;39.60;;;;;;5035209;28;20080;-72
2021/07/29 11:04:53;;;;;;;6.60;4.50;;;40.00;39.60;;;;;;5036989;28;20471;-72
2021/07/29 11:07:19;;;;;;;9.55;4.70;;;40.10;39.70;;;;;;5036866;28;20025;-74
2021/07/29 11:09:45;;;;;;;7.40;4.22;;;40.20;39.40;;;;;;5036959;28;20083;-73
2021/07/29 11:12:16;;;;;;;7.80;4.47;;;40.40;38.60;;;;;;5036815;28;20022;-75
2021/07/29 11:14:42;;;;;;;9.57;4.18;;;40.40;37.90;;;;;;5036522;28;20026;-73
2021/07/29 11:17:09;;;;;;;9.07;3.97;;;40.00;37.40;;;;;;5036471;28;20128;-72
2021/07/29 11:19:45;;;;;;;6.20;3.95;;;39.40;37.50;;;;;;5035928;28;20034;-73
2021/07/29 11:22:11;;;;;;;7.30;4.22;;;39.20;37.80;;;;;;5036825;28;20079;-73
2021/07/29 11:24:37;;;;;;;9.00;4.05;;;39.40;38.00;;;;;;5036353;28;20064;-73
2021/07/29 11:27:07;;;;;;;12.43;4.15;;;39.70;37.70;;;;;;5036160;28;20022;-73
2021/07/29 11:29:33;;;;;;;10.23;4.13;;;40.00;37.80;;;;;;5036029;28;20033;-73
2021/07/29 11:31:59;;;;;;;11.73;4.13;;;40.40;37.70;;;;;;5035897;28;20109;-73
2021/07/29 11:34:33;;;;;;;8.02;4.32;;;40.70;37.70;;;;;;5036041;28;20065;-73
2021/07/29 11:37:00;;;;;;;10.48;4.68;;;40.90;37.40;;;;;;5036621;28;20053;-72
2021/07/29 11:39:36;;;;;;;8.63;4.72;;;41.00;37.50;;;;;;5035157;28;20388;-73
2021/07/29 11:42:02;;;;;;;7.25;4.15;;;41.30;37.50;;;;;;5036460;28;20021;-73
2021/07/29 11:44:43;;;;;;;8.00;3.83;;;41.50;37.20;;;;;;5035814;28;20021;-73
2021/07/29 11:47:09;;;;;;;9.80;4.57;;;41.90;37.20;;;;;;5036036;28;20024;-74
2021/07/29 11:49:51;;;;;;;8.13;4.25;;;42.20;37.10;;;;;;5036242;28;20033;-73
2021/07/29 11:52:21;;;;;;;11.52;4.20;;;42.60;36.50;;;;;;5036115;28;20029;-73
2021/07/29 11:54:49;;;;;;;7.47;4.20;;;42.90;36.10;;;;;;5035357;28;20178;-74
2021/07/29 11:57:28;;;;;;;7.15;4.18;;;43.10;36.00;;;;;;5035801;28;20112;-73
2021/07/29 11:59:54;;;;;;;10.35;4.20;;;43.30;35.40;;;;;;5035741;28;20069;-73
2021/07/29 12:02:22;;;;;;;6.90;4.20;;;43.20;35.30;;;;;;5035989;28;20100;-73
2021/07/29 12:04:48;;;;;;;9.05;4.57;;;43.20;35.30;;;;;;5036508;28;20075;-73
2021/07/29 12:07:15;;;;;;;8.45;4.47;;;43.30;35.60;;;;;;5035369;28;20453;-74
2021/07/29 12:09:42;;;;;;;8.10;4.45;;;43.30;35.70;;;;;;5035624;28;20037;-74
2021/07/29 12:12:10;;;;;;;8.35;4.82;;;43.40;35.50;;;;;;5035964;28;20384;-74
2021/07/29 12:14:36;;;;;;;9.52;4.45;;;43.20;35.50;;;;;;5035251;28;20053;-73
2021/07/29 12:17:01;;;;;;;11.07;4.57;;;43.30;35.50;;;;;;5035420;28;20057;-74
2021/07/29 12:19:27;;;;;;;11.25;4.88;;;43.40;35.40;;;;;;5035332;28;20519;-73
2021/07/29 12:21:54;;;;;;;11.27;4.55;;;43.30;35.50;;;;;;5035313;28;20075;-73
2021/07/29 12:24:20;;;;;;;13.75;4.60;;;43.30;35.50;;;;;;5035167;28;20037;-73
2021/07/29 12:27:05;;;;;;;10.82;5.00;;;43.60;35.60;;;;;;5033354;28;20080;-74
2021/07/29 12:29:41;;;;;;;8.20;4.50;;;43.80;35.60;;;;;;5034766;28;20028;-74
2021/07/29 12:32:24;;;;;;;9.85;4.30;;;43.90;35.60;;;;;;5032722;28;20510;-74
2021/07/29 12:34:51;;;;;;;12.00;4.50;;;44.00;35.50;;;;;;5035078;28;20465;-74
2021/07/29 12:37:29;;;;;;;15.50;5.05;;;44.00;35.50;;;;;;5034773;28;20041;-75